Time;durP1;ratioP1;P1;durP2;ratioP2;P2;SDS_P1;SDS_P2;PMS_P1;PMS_P2;Temp;Humidity;BMP_temperature;BMP_pressure;BME280_temperature;BME280_humidity;BME280_pressure;Samples;Min_cycle;Max_cycle;Signal;HPM_P1;HPM_P2
2023/08/09 00:01:32;;;;;;;9.33;8.83;;;;;;;13.81;91.29;93102.03;5063884;28;20211;-74
2023/08/09 00:03:57;;;;;;;9.60;9.20;;;;;;;13.93;90.97;93099.00;5058245;28;20181;-73
2023/08/09 00:06:22;;;;;;;10.67;10.17;;;;;;;13.72;91.08;93064.41;5069913;28;20192;-73
2023/08/09 00:08:48;;;;;;;10.37;9.87;;;;;;;13.92;91.12;93098.22;5077456;28;20185;-73
2023/08/09 00:11:13;;;;;;;10.43;9.93;;;;;;;13.96;90.36;93096.56;5079328;28;20221;-73
2023/08/09 00:13:38;;;;;;;10.20;9.70;;;;;;;13.85;91.08;93089.91;5068331;28;20228;-73
2023/08/09 00:16:05;;;;;;;10.10;9.70;;;;;;;13.91;91.57;93090.63;5066955;28;20192;-73
2023/08/09 00:18:30;;;;;;;9.33;8.93;;;;;;;13.71;91.98;93091.69;5067382;28;20209;-73
2023/08/09 00:20:56;;;;;;;10.63;10.13;;;;;;;13.69;92.41;93099.09;5071304;28;20248;-74
2023/08/09 00:23:21;;;;;;;9.83;9.33;;;;;;;13.71;91.19;93077.81;5073026;28;20220;-73
2023/08/09 00:25:47;;;;;;;9.90;9.30;;;;;;;13.76;90.92;93083.75;5072931;28;20208;-73
2023/08/09 00:28:12;;;;;;;9.93;9.47;;;;;;;13.72;91.11;93077.53;5049396;28;20218;-74
2023/08/09 00:30:38;;;;;;;10.30;9.80;;;;;;;13.70;92.12;93094.59;5044392;28;20223;-73
2023/08/09 00:33:03;;;;;;;10.70;10.07;;;;;;;13.71;92.20;93089.06;5059684;28;20236;-73
2023/08/09 00:35:30;;;;;;;10.53;10.00;;;;;;;13.62;92.80;93082.91;5070604;28;20208;-73
2023/08/09 00:37:55;;;;;;;10.80;10.30;;;;;;;13.70;92.32;93077.03;5045650;28;20206;-73
2023/08/09 00:40:21;;;;;;;9.97;9.53;;;;;;;13.54;91.83;93072.28;5052228;28;20190;-73
2023/08/09 00:42:46;;;;;;;10.70;10.20;;;;;;;13.64;92.05;93085.25;5050719;28;20251;-73
2023/08/09 00:45:12;;;;;;;10.30;9.80;;;;;;;13.63;91.96;93079.25;5072975;28;20181;-74
2023/08/09 00:47:38;;;;;;;10.97;10.47;;;;;;;13.62;92.62;93077.66;5061298;28;20218;-73
2023/08/09 00:50:04;;;;;;;10.50;10.00;;;;;;;13.53;92.54;93079.38;5041230;28;20186;-75
2023/08/09 00:52:30;;;;;;;10.73;10.23;;;;;;;13.56;92.38;93076.19;5060806;28;20232;-73
2023/08/09 00:54:56;;;;;;;10.90;10.20;;;;;;;13.33;93.88;93071.78;5072819;28;20176;-73
2023/08/09 00:57:22;;;;;;;10.57;10.07;;;;;;;13.16;94.94;93074.13;5072621;28;20236;-74
2023/08/09 00:59:47;;;;;;;11.07;10.47;;;;;;;13.28;94.54;93066.63;5072599;28;20181;-73
2023/08/09 01:02:12;;;;;;;9.80;9.30;;;;;;;13.27;94.21;93075.56;5071994;28;20233;-73
2023/08/09 01:04:38;;;;;;;11.23;10.63;;;;;;;13.32;94.10;93075.50;5071132;28;20241;-73
2023/08/09 01:07:13;;;;;;;9.77;9.27;;;;;;;13.35;93.97;93074.94;5072095;28;20229;-73
2023/08/09 01:10:02;;;;;;;10.30;9.80;;;;;;;13.30;94.15;93076.81;5072214;28;20197;-74
2023/08/09 01:12:34;;;;;;;11.27;10.67;;;;;;;13.21;94.00;93070.66;5060158;28;20229;-73
2023/08/09 01:15:02;;;;;;;9.80;9.37;;;;;;;13.22;93.73;93072.19;5056853;28;20194;-73
2023/08/09 01:17:31;;;;;;;10.10;9.60;;;;;;;13.33;93.56;93068.38;5060919;28;20229;-73
2023/08/09 01:19:58;;;;;;;11.40;10.80;;;;;;;13.27;94.42;93075.56;5034457;28;20217;-73
2023/08/09 01:22:31;;;;;;;9.40;8.97;;;;;;;13.22;94.39;93078.25;5051818;28;20217;-73
2023/08/09 01:25:02;;;;;;;9.80;9.07;;;;;;;13.18;94.20;93077.25;5067413;28;20178;-73
2023/08/09 01:27:29;;;;;;;10.13;9.63;;;;;;;13.23;93.77;93073.78;5053540;28;20312;-74
2023/08/09 01:29:56;;;;;;;9.93;9.43;;;;;;;13.19;94.31;93075.41;5051181;28;20213;-74
2023/08/09 01:32:22;;;;;;;9.10;8.70;;;;;;;13.08;93.46;93045.13;5054582;28;20218;-73
2023/08/09 01:34:47;;;;;;;9.90;9.40;;;;;;;13.16;93.68;93063.63;5051264;28;20194;-73
2023/08/09 01:37:32;;;;;;;10.33;9.80;;;;;;;13.23;93.36;93073.78;5046799;28;20233;-73
2023/08/09 01:40:03;;;;;;;10.17;9.67;;;;;;;13.15;93.63;93069.16;5060312;28;20181;-74
2023/08/09 01:42:29;;;;;;;10.10;9.60;;;;;;;13.16;93.27;93074.13;5061849;28;20267;-73
2023/08/09 01:44:55;;;;;;;10.23;9.63;;;;;;;13.08;93.20;93059.03;5043803;28;20174;-74
2023/08/09 01:47:20;;;;;;;9.13;8.73;;;;;;;13.08;93.83;93074.75;5051654;28;20221;-74
2023/08/09 01:49:47;;;;;;;10.90;10.40;;;;;;;13.11;93.79;93071.56;5071436;28;20208;-74
2023/08/09 01:52:13;;;;;;;10.33;9.83;;;;;;;13.13;93.37;93069.44;5081840;28;20229;-73
2023/08/09 01:54:39;;;;;;;10.30;9.80;;;;;;;12.96;93.48;93064.63;5071468;28;20269;-73
2023/08/09 01:57:04;;;;;;;10.43;9.93;;;;;;;13.01;93.59;93076.94;5064562;28;20229;-73
2023/08/09 01:59:30;;;;;;;11.20;10.67;;;;;;;12.93;93.89;93085.41;5051599;28;20182;-74
2023/08/09 02:01:55;;;;;;;9.87;9.33;;;;;;;12.90;94.62;93078.09;5050802;28;20226;-74
2023/08/09 02:04:21;;;;;;;10.43;9.93;;;;;;;13.02;94.11;93082.94;5051359;28;20193;-74
2023/08/09 02:06:46;;;;;;;10.97;10.47;;;;;;;13.03;93.67;93080.06;5036954;28;20300;-74
2023/08/09 02:09:11;;;;;;;9.90;9.50;;;;;;;13.04;93.04;93083.47;5034932;28;20872;-73
2023/08/09 02:11:37;;;;;;;10.97;10.40;;;;;;;12.87;93.90;93076.03;5040146;28;20696;-73
2023/08/09 02:14:03;;;;;;;11.40;10.70;;;;;;;13.02;93.28;93078.50;5071388;28;20196;-74
2023/08/09 02:16:29;;;;;;;11.37;10.77;;;;;;;12.98;93.51;93074.84;5070556;28;20174;-73
2023/08/09 02:18:54;;;;;;;10.60;10.10;;;;;;;12.84;95.02;93076.63;5062199;28;20217;-73
2023/08/09 02:21:21;;;;;;;9.27;8.87;;;;;;;12.86;95.03;93067.41;5051812;28;20182;-73
2023/08/09 02:23:47;;;;;;;10.13;9.63;;;;;;;12.85;94.40;93073.72;5051576;28;20170;-73
2023/08/09 02:26:13;;;;;;;10.20;9.70;;;;;;;12.96;94.01;93077.75;5068293;28;20177;-74
2023/08/09 02:28:39;;;;;;;10.03;9.53;;;;;;;12.92;94.19;93081.19;5070670;28;20225;-74
2023/08/09 02:31:04;;;;;;;11.03;10.23;;;;;;;12.92;94.30;93078.59;5070464;28;20213;-74
2023/08/09 02:33:30;;;;;;;9.77;9.30;;;;;;;12.87;94.51;93076.03;5069879;28;20236;-73
2023/08/09 02:36:00;;;;;;;10.77;10.27;;;;;;;12.79;94.67;93074.81;5057686;28;20178;-73
2023/08/09 02:38:27;;;;;;;10.20;9.73;;;;;;;12.86;94.49;93079.72;5060766;28;20238;-73
2023/08/09 02:40:53;;;;;;;11.13;10.53;;;;;;;12.70;95.13;93070.50;5064526;28;20292;-73
2023/08/09 02:43:19;;;;;;;9.47;8.97;;;;;;;12.69;95.28;93082.00;5060001;28;20224;-73
2023/08/09 02:45:45;;;;;;;10.50;9.83;;;;;;;12.76;95.11;93087.72;5065502;28;20189;-73
2023/08/09 02:48:11;;;;;;;10.33;9.57;;;;;;;12.66;95.25;93085.97;5065428;28;20226;-74
2023/08/09 02:50:37;;;;;;;11.30;10.60;;;;;;;12.68;95.05;93080.47;5050650;28;20186;-74
2023/08/09 02:53:04;;;;;;;10.83;9.93;;;;;;;12.69;94.96;93092.47;5063692;28;20251;-74
2023/08/09 02:55:33;;;;;;;10.63;10.13;;;;;;;12.66;95.24;93078.13;5067561;28;20184;-70
2023/08/09 02:58:00;;;;;;;9.50;9.07;;;;;;;12.63;95.35;93083.91;5047393;28;20261;-71
2023/08/09 03:00:25;;;;;;;9.53;9.00;;;;;;;12.72;94.98;93099.78;5047259;28;20598;-74
2023/08/09 03:02:50;;;;;;;9.97;9.47;;;;;;;12.62;94.75;93078.97;5044684;28;20221;-75
2023/08/09 03:05:17;;;;;;;10.00;9.47;;;;;;;12.63;95.57;93097.00;5049790;28;20182;-75
2023/08/09 03:07:42;;;;;;;10.53;9.93;;;;;;;12.64;95.62;93093.31;5049844;28;20225;-74
2023/08/09 03:10:08;;;;;;;10.97;10.47;;;;;;;12.61;95.45;93093.88;5051074;28;20186;-74
2023/08/09 03:12:35;;;;;;;10.40;9.90;;;;;;;12.65;95.55;93101.97;5049727;28;20261;-74
2023/08/09 03:15:01;;;;;;;10.10;9.60;;;;;;;12.63;95.83;93107.50;5046770;28;20178;-74
2023/08/09 03:17:27;;;;;;;10.30;9.70;;;;;;;12.62;95.96;93116.38;5052260;28;20250;-74
2023/08/09 03:19:52;;;;;;;10.27;9.77;;;;;;;12.61;96.13;93109.59;5069031;28;20201;-74
2023/08/09 03:22:18;;;;;;;9.83;9.43;;;;;;;12.59;95.45;93106.47;5052856;28;20227;-74
2023/08/09 03:24:43;;;;;;;10.80;10.27;;;;;;;12.66;95.56;93112.16;5038811;28;20198;-75
2023/08/09 03:27:09;;;;;;;10.77;9.87;;;;;;;12.55;96.55;93096.81;5047279;28;20237;-74
2023/08/09 03:29:34;;;;;;;10.67;10.17;;;;;;;12.74;95.51;93108.16;5049706;28;20234;-74
2023/08/09 03:31:59;;;;;;;11.03;10.07;;;;;;;12.72;95.22;93105.03;5046928;28;20238;-74
2023/08/09 03:34:25;;;;;;;10.57;9.87;;;;;;;12.45;95.62;93084.63;5035877;28;20193;-74
2023/08/09 03:36:51;;;;;;;11.07;10.57;;;;;;;12.74;95.03;93113.41;5043801;28;20232;-75
2023/08/09 03:39:16;;;;;;;9.73;9.33;;;;;;;12.68;95.83;93104.78;5068050;28;20257;-74
2023/08/09 03:41:42;;;;;;;11.33;10.37;;;;;;;12.69;94.71;93082.00;5059113;28;20228;-75
2023/08/09 03:44:08;;;;;;;10.27;9.67;;;;;;;12.84;94.51;93105.44;5067120;28;20212;-74
2023/08/09 03:46:34;;;;;;;10.70;10.20;;;;;;;12.82;94.24;93104.94;5058567;28;20193;-74
2023/08/09 03:49:00;;;;;;;10.30;9.80;;;;;;;12.88;93.66;93120.31;5069378;28;20193;-74
2023/08/09 03:51:25;;;;;;;9.83;9.43;;;;;;;12.95;93.37;93130.44;5069004;28;20256;-74
2023/08/09 03:53:50;;;;;;;10.77;10.20;;;;;;;12.89;93.23;93106.16;5061486;28;20197;-75
2023/08/09 03:56:16;;;;;;;9.77;9.07;;;;;;;13.10;93.05;93126.91;5069116;28;20189;-74
2023/08/09 03:58:41;;;;;;;11.03;10.03;;;;;;;13.07;93.06;93120.38;5069222;28;20240;-74
2023/08/09 04:01:07;;;;;;;10.47;9.83;;;;;;;13.09;94.04;93123.50;5064535;28;20193;-74
2023/08/09 04:03:33;;;;;;;11.07;10.50;;;;;;;13.10;96.05;93130.31;5065040;28;20213;-74
2023/08/09 04:05:58;;;;;;;10.37;9.87;;;;;;;13.22;96.32;93129.88;5061347;28;20192;-74
2023/08/09 04:08:26;;;;;;;11.13;10.47;;;;;;;13.14;97.52;93133.91;5066242;28;20224;-74
2023/08/09 04:10:54;;;;;;;11.53;10.90;;;;;;;13.12;97.88;93135.28;5069375;28;20173;-74
2023/08/09 04:13:20;;;;;;;10.13;9.63;;;;;;;13.29;96.72;93135.59;5068951;28;20232;-74
2023/08/09 04:15:45;;;;;;;11.83;10.77;;;;;;;13.38;96.49;93137.28;5068811;28;20178;-75
2023/08/09 04:18:10;;;;;;;10.13;9.57;;;;;;;13.46;96.62;93136.66;5068736;28;20286;-74
2023/08/09 04:20:36;;;;;;;11.03;10.43;;;;;;;13.50;96.64;93135.03;5069202;28;20210;-74
2023/08/09 04:23:01;;;;;;;11.60;10.50;;;;;;;13.51;97.60;93133.97;5066892;28;20229;-74
2023/08/09 04:25:27;;;;;;;10.93;10.23;;;;;;;13.60;96.54;93116.53;5062629;28;20207;-75
2023/08/09 04:27:53;;;;;;;9.33;8.93;;;;;;;13.79;94.43;93119.91;5072329;28;20244;-74
2023/08/09 04:30:18;;;;;;;10.67;10.17;;;;;;;13.78;95.47;93134.13;5066385;28;20221;-74
2023/08/09 04:32:44;;;;;;;11.00;10.50;;;;;;;13.79;94.75;93130.41;5061840;28;20268;-74
2023/08/09 04:35:10;;;;;;;9.87;9.37;;;;;;;13.87;94.39;93128.97;5064052;28;20197;-74
2023/08/09 04:37:35;;;;;;;9.23;8.73;;;;;;;14.30;89.96;93139.09;5067970;28;20263;-74
2023/08/09 04:40:01;;;;;;;8.77;8.27;;;;;;;14.32;89.83;93129.09;5068986;28;20186;-74
2023/08/09 04:42:27;;;;;;;10.07;9.57;;;;;;;14.38;89.80;93127.16;5063922;28;20252;-74
2023/08/09 04:44:52;;;;;;;10.33;9.73;;;;;;;14.46;88.64;93129.91;5062368;28;20217;-79
2023/08/09 04:47:18;;;;;;;10.17;9.67;;;;;;;14.47;88.75;93125.44;5064980;28;20251;-76
2023/08/09 04:49:43;;;;;;;9.50;9.00;;;;;;;14.41;90.57;93137.84;5059495;28;20182;-78
2023/08/09 04:52:09;;;;;;;11.63;10.83;;;;;;;14.78;88.32;93128.28;5060046;28;20225;-72
2023/08/09 04:54:34;;;;;;;10.50;9.77;;;;;;;14.94;87.09;93132.19;5054673;28;20197;-72
2023/08/09 04:57:00;;;;;;;9.47;8.97;;;;;;;14.78;89.05;93133.53;5067720;28;20236;-72
2023/08/09 04:59:25;;;;;;;9.70;9.10;;;;;;;15.07;87.98;93136.66;5064323;28;20193;-70
2023/08/09 05:01:50;;;;;;;11.10;10.40;;;;;;;14.96;88.50;93138.72;5064507;28;20256;-69
2023/08/09 05:04:16;;;;;;;11.30;10.60;;;;;;;14.95;87.89;93128.50;5067493;28;20228;-69
2023/08/09 05:06:41;;;;;;;11.73;10.87;;;;;;;14.95;88.20;93142.44;5059573;28;20237;-69
2023/08/09 05:09:07;;;;;;;10.70;9.83;;;;;;;14.99;86.78;93132.88;5043608;28;20186;-68
2023/08/09 05:18:23;;;;;;;11.47;10.93;;;;;;;14.28;91.13;93143.88;5107443;27;20313;-70
2023/08/09 05:20:49;;;;;;;11.57;10.67;;;;;;;14.41;90.37;93145.75;5108498;28;20188;-70
2023/08/09 05:23:14;;;;;;;11.97;11.20;;;;;;;14.51;90.16;93151.91;5077996;28;20221;-70
2023/08/09 05:25:39;;;;;;;10.97;10.37;;;;;;;14.41;88.41;93166.75;5084307;28;20199;-73
2023/08/09 05:28:05;;;;;;;10.40;9.90;;;;;;;14.66;88.69;93170.81;5083488;28;20483;-70
2023/08/09 05:30:30;;;;;;;11.13;10.27;;;;;;;14.75;87.17;93168.31;5078660;28;20199;-72
2023/08/09 05:32:58;;;;;;;11.13;10.33;;;;;;;14.70;87.86;93168.38;5081945;28;20235;-71
2023/08/09 05:35:26;;;;;;;11.17;10.57;;;;;;;14.91;86.70;93166.97;5080622;28;20180;-71
2023/08/09 05:37:52;;;;;;;12.27;11.57;;;;;;;15.19;85.47;93171.94;5075025;28;20255;-71
2023/08/09 05:40:17;;;;;;;11.27;10.67;;;;;;;14.66;87.49;93155.06;5079471;28;20184;-75
2023/08/09 05:42:43;;;;;;;11.67;10.97;;;;;;;14.46;88.10;93155.38;5080553;28;20266;-71
2023/08/09 05:45:09;;;;;;;11.70;10.90;;;;;;;14.72;88.80;93163.63;5082458;28;20240;-70
2023/08/09 05:47:34;;;;;;;10.73;10.13;;;;;;;15.37;85.42;93151.84;5075013;28;20220;-72
2023/08/09 05:50:00;;;;;;;12.67;11.97;;;;;;;15.43;84.81;93158.59;5080893;28;20185;-70
2023/08/09 05:52:26;;;;;;;11.60;10.77;;;;;;;15.75;84.04;93161.88;5093495;28;20266;-70
2023/08/09 05:54:52;;;;;;;11.63;10.83;;;;;;;15.88;81.71;93162.91;5097262;28;20181;-71
2023/08/09 05:57:17;;;;;;;11.73;10.90;;;;;;;17.44;77.32;93168.53;5092046;28;20545;-71
2023/08/09 05:59:43;;;;;;;12.17;11.17;;;;;;;20.48;64.12;93180.88;5104146;28;20188;-72
2023/08/09 06:02:08;;;;;;;11.53;10.60;;;;;;;25.55;46.92;93188.84;5102918;28;20237;-70
2023/08/09 06:04:34;;;;;;;10.40;9.38;;;;;;;26.24;43.35;93185.72;5103751;28;20191;-74
2023/08/09 06:07:00;;;;;;;10.45;9.48;;;;;;;25.53;44.62;93187.63;5100932;28;20234;-74
2023/08/09 06:09:25;;;;;;;8.07;7.63;;;;;;;25.36;44.99;93188.88;5101211;28;20200;-73
2023/08/09 06:11:51;;;;;;;11.68;8.85;;;;;;;26.89;41.06;93190.81;5099070;28;20231;-72
2023/08/09 06:14:16;;;;;;;9.05;8.35;;;;;;;28.97;36.55;93192.16;5096554;28;20184;-73
2023/08/09 06:16:45;;;;;;;11.20;10.48;;;;;;;29.29;35.97;93195.75;5099787;28;20233;-74
2023/08/09 06:19:11;;;;;;;9.50;8.50;;;;;;;25.36;42.63;93190.75;5099465;28;20190;-75
2023/08/09 06:21:36;;;;;;;9.50;8.63;;;;;;;28.33;37.37;93179.50;5100988;28;20208;-75
2023/08/09 06:24:02;;;;;;;8.52;8.05;;;;;;;30.24;33.04;93203.22;5098296;28;20184;-73
2023/08/09 06:26:28;;;;;;;8.68;7.93;;;;;;;26.84;38.79;93183.09;5102029;28;20192;-72
2023/08/09 06:28:53;;;;;;;8.32;7.93;;;;;;;26.43;41.06;93182.94;5088764;28;20191;-71
2023/08/09 06:31:18;;;;;;;9.85;9.25;;;;;;;24.26;45.43;93168.34;5082665;28;20240;-72
2023/08/09 06:33:44;;;;;;;8.98;8.25;;;;;;;23.21;49.27;93161.22;5084126;28;20214;-71
2023/08/09 06:36:11;;;;;;;9.60;8.90;;;;;;;20.91;55.41;93148.63;5089582;28;20199;-72
2023/08/09 06:38:37;;;;;;;10.15;9.35;;;;;;;20.01;60.26;93151.09;5083306;28;20229;-71
2023/08/09 06:41:02;;;;;;;10.48;9.82;;;;;;;19.24;62.82;93148.06;5087332;28;20202;-71
2023/08/09 06:43:28;;;;;;;10.77;10.13;;;;;;;18.90;65.08;93148.19;5085906;28;20232;-71
2023/08/09 06:45:54;;;;;;;10.43;9.35;;;;;;;18.25;68.55;93143.16;5087555;28;20183;-71
2023/08/09 06:48:19;;;;;;;10.57;9.97;;;;;;;18.06;70.40;93144.53;5119625;28;20230;-71
2023/08/09 06:50:44;;;;;;;12.03;11.07;;;;;;;18.60;68.70;93155.25;5090619;28;20188;-72
2023/08/09 06:53:10;;;;;;;11.37;10.77;;;;;;;18.17;70.74;93157.16;5091052;28;20230;-70
2023/08/09 06:55:35;;;;;;;11.10;10.13;;;;;;;17.88;71.68;93149.06;5091530;28;20236;-72
2023/08/09 06:58:00;;;;;;;9.70;9.20;;;;;;;18.67;69.34;93152.94;5090805;28;20227;-74
2023/08/09 07:00:26;;;;;;;11.20;10.40;;;;;;;18.34;69.87;93145.78;5090934;28;20197;-72
2023/08/09 07:02:51;;;;;;;10.10;9.33;;;;;;;18.29;70.00;93144.06;5108017;28;21204;-71
2023/08/09 07:05:21;;;;;;;11.20;10.60;;;;;;;18.65;69.64;93146.38;5069558;28;20205;-71
2023/08/09 07:07:47;;;;;;;11.60;10.63;;;;;;;18.32;70.68;93150.63;5067348;28;20247;-71
2023/08/09 07:10:14;;;;;;;11.07;10.37;;;;;;;17.95;71.55;93146.72;5067790;28;20192;-72
2023/08/09 07:12:40;;;;;;;11.40;10.70;;;;;;;18.24;70.31;93131.00;5072291;28;20227;-71
2023/08/09 07:15:08;;;;;;;10.60;9.93;;;;;;;19.01;66.14;93139.59;5070336;28;20271;-72
2023/08/09 07:17:35;;;;;;;11.17;10.57;;;;;;;18.68;66.91;93124.59;5067623;28;20248;-72
2023/08/09 07:20:01;;;;;;;11.30;10.50;;;;;;;19.25;65.53;93133.75;5083423;28;20207;-71
2023/08/09 07:22:26;;;;;;;10.10;9.50;;;;;;;19.07;63.83;93142.84;5078104;28;20221;-72
2023/08/09 07:24:52;;;;;;;10.80;10.20;;;;;;;18.80;66.30;93143.25;5089564;28;20190;-71
2023/08/09 07:27:17;;;;;;;9.67;9.23;;;;;;;19.21;65.45;93140.75;5089232;28;20226;-73
2023/08/09 07:29:42;;;;;;;11.60;10.87;;;;;;;18.97;66.13;93143.97;5090169;28;20209;-73
2023/08/09 07:32:08;;;;;;;10.73;10.00;;;;;;;19.09;66.29;93138.03;5090562;28;20249;-75
2023/08/09 07:34:33;;;;;;;10.93;10.17;;;;;;;19.44;65.69;93120.91;5090942;28;20182;-75
2023/08/09 07:36:58;;;;;;;10.60;9.97;;;;;;;19.60;64.37;93132.50;5089647;28;20222;-76
2023/08/09 07:39:25;;;;;;;10.30;9.67;;;;;;;19.53;65.16;93134.09;5090505;28;20196;-73
2023/08/09 07:41:51;;;;;;;14.33;12.93;;;;;;;19.42;65.04;93122.31;5089317;28;20235;-73
2023/08/09 07:44:16;;;;;;;10.43;9.83;;;;;;;19.29;66.15;93124.09;5090116;28;20233;-73
2023/08/09 07:46:42;;;;;;;10.23;9.53;;;;;;;19.13;65.70;93128.34;5089879;28;20227;-73
2023/08/09 07:49:07;;;;;;;11.43;10.83;;;;;;;19.76;64.22;93127.41;5090087;28;20243;-73
2023/08/09 07:51:32;;;;;;;10.33;9.73;;;;;;;19.89;62.21;93126.41;5090214;28;20188;-72
2023/08/09 07:53:58;;;;;;;10.77;9.97;;;;;;;19.59;62.29;93125.66;5090430;28;20893;-73
2023/08/09 07:56:23;;;;;;;10.87;10.17;;;;;;;19.69;63.99;93122.63;5090974;28;20203;-72
2023/08/09 07:58:49;;;;;;;10.77;9.97;;;;;;;19.65;64.23;93120.94;5092455;28;20211;-72
2023/08/09 08:01:14;;;;;;;9.88;9.38;;;;;;;19.51;63.28;93123.06;5092051;28;20190;-73
2023/08/09 08:03:40;;;;;;;10.73;10.17;;;;;;;19.56;65.26;93120.22;5092664;28;20300;-72
2023/08/09 08:06:05;;;;;;;9.50;9.00;;;;;;;20.15;62.30;93122.50;5083691;28;20177;-72
2023/08/09 08:08:31;;;;;;;9.32;8.82;;;;;;;20.04;62.47;93116.00;5094789;28;20219;-73
2023/08/09 08:10:57;;;;;;;9.83;9.23;;;;;;;19.83;62.47;93122.41;5089780;28;20188;-73
2023/08/09 08:13:23;;;;;;;10.00;9.43;;;;;;;19.71;63.06;93109.06;5072498;28;20293;-73
2023/08/09 08:15:50;;;;;;;9.53;9.03;;;;;;;20.11;61.59;93113.59;5069391;28;20193;-71
2023/08/09 08:18:16;;;;;;;10.73;10.13;;;;;;;20.06;61.64;93121.72;5081561;28;20227;-73
2023/08/09 08:20:42;;;;;;;10.20;9.60;;;;;;;20.17;61.86;93109.66;5090332;28;20209;-72
2023/08/09 08:23:07;;;;;;;10.63;9.93;;;;;;;20.50;61.81;93126.38;5074030;28;20219;-72
2023/08/09 08:25:33;;;;;;;10.15;9.45;;;;;;;20.66;61.44;93122.03;5069776;28;20738;-72
2023/08/09 08:27:59;;;;;;;10.43;9.93;;;;;;;20.87;59.34;93124.63;5081476;28;20230;-72
2023/08/09 08:30:24;;;;;;;9.93;9.32;;;;;;;20.80;61.80;93123.59;5090062;28;20185;-73
2023/08/09 08:32:51;;;;;;;10.60;9.00;;;;;;;20.50;60.41;93113.13;5089401;28;21077;-72
2023/08/09 08:35:20;;;;;;;42.22;13.55;;;;;;;20.17;63.40;93112.31;5089854;28;20900;-72
2023/08/09 08:37:47;;;;;;;10.20;9.33;;;;;;;19.91;62.54;93108.28;5089280;28;20232;-71
2023/08/09 08:40:18;;;;;;;10.30;9.70;;;;;;;19.95;62.70;93103.91;5089385;28;20196;-73
2023/08/09 08:42:44;;;;;;;11.25;10.65;;;;;;;20.33;62.27;93118.59;5088250;28;20229;-71
2023/08/09 08:45:11;;;;;;;9.98;9.40;;;;;;;20.89;59.34;93116.34;5089905;28;20565;-70
2023/08/09 08:47:40;;;;;;;10.95;10.23;;;;;;;20.91;58.74;93114.88;5089222;28;20216;-70
2023/08/09 08:50:08;;;;;;;9.82;9.32;;;;;;;21.20;58.67;93114.72;5089848;28;20239;-72
2023/08/09 08:52:40;;;;;;;10.00;9.35;;;;;;;21.48;58.88;93090.94;5088829;28;20218;-70
2023/08/09 08:55:07;;;;;;;10.43;9.80;;;;;;;21.45;58.08;93104.88;5088762;28;20192;-70
2023/08/09 08:57:34;;;;;;;9.50;9.05;;;;;;;21.51;57.29;93100.91;5087257;28;20225;-70
2023/08/09 09:00:07;;;;;;;9.32;8.73;;;;;;;21.37;56.63;93095.91;5086584;28;20243;-72
2023/08/09 09:02:33;;;;;;;10.00;9.25;;;;;;;21.45;57.52;93094.25;5088240;28;20277;-69
2023/08/09 09:04:59;;;;;;;9.57;8.98;;;;;;;21.41;58.01;93080.88;5088442;28;20182;-69
2023/08/09 09:07:25;;;;;;;9.55;8.65;;;;;;;21.44;59.07;93082.06;5089002;28;20989;-69
2023/08/09 09:10:03;;;;;;;9.27;8.55;;;;;;;21.58;58.83;93075.31;5089389;28;20189;-70
2023/08/09 09:12:28;;;;;;;10.23;9.73;;;;;;;21.96;56.11;93090.91;5084808;28;20232;-69
2023/08/09 09:14:54;;;;;;;9.13;8.73;;;;;;;21.90;55.91;93081.59;5089256;28;20187;-69
2023/08/09 09:17:20;;;;;;;9.50;9.05;;;;;;;21.65;58.03;93070.19;5094415;28;20228;-69
2023/08/09 09:19:45;;;;;;;9.32;8.88;;;;;;;22.08;56.76;93088.19;5088583;28;20191;-70
2023/08/09 09:22:26;;;;;;;10.15;9.55;;;;;;;22.15;56.84;93085.72;5080907;28;20220;-69
2023/08/09 09:24:51;;;;;;;10.18;9.60;;;;;;;21.90;56.82;93092.22;5058613;28;20997;-69
2023/08/09 09:27:17;;;;;;;9.68;9.27;;;;;;;21.79;57.49;93077.88;5064756;28;20226;-69
2023/08/09 09:29:42;;;;;;;10.93;10.23;;;;;;;22.05;55.70;93078.25;5067874;28;20211;-69
2023/08/09 09:32:08;;;;;;;9.93;9.27;;;;;;;22.13;54.65;93078.06;5074841;28;20226;-69
2023/08/09 09:34:35;;;;;;;9.32;8.90;;;;;;;22.22;55.50;93077.94;5085007;28;20194;-68
2023/08/09 09:37:00;;;;;;;9.50;8.80;;;;;;;22.31;54.01;93073.25;5088918;28;20223;-68
2023/08/09 09:39:28;;;;;;;9.80;9.20;;;;;;;22.20;54.75;93072.19;5089408;28;20221;-69
2023/08/09 09:41:53;;;;;;;9.00;8.60;;;;;;;22.09;53.77;93068.47;5088139;28;20291;-69
2023/08/09 09:44:21;;;;;;;8.93;8.52;;;;;;;21.97;53.13;93060.53;5089196;28;20183;-69
2023/08/09 09:46:57;;;;;;;10.10;9.52;;;;;;;22.23;53.93;93055.56;5088615;28;20227;-69
2023/08/09 09:49:23;;;;;;;9.05;8.65;;;;;;;22.59;52.60;93063.41;5089298;28;20243;-68
2023/08/09 09:51:49;;;;;;;8.85;8.45;;;;;;;22.72;52.62;93056.91;5088888;28;20219;-69
2023/08/09 09:54:16;;;;;;;9.07;8.48;;;;;;;22.67;52.14;93043.84;5089346;28;20184;-69
2023/08/09 09:56:41;;;;;;;10.20;9.38;;;;;;;22.58;51.56;93035.25;5087665;28;20688;-68
2023/08/09 09:59:07;;;;;;;9.35;8.85;;;;;;;22.76;53.54;93044.44;5089173;28;20205;-68
2023/08/09 10:01:39;;;;;;;9.93;9.43;;;;;;;22.77;53.74;93040.66;5088762;28;20185;-68
2023/08/09 10:04:06;;;;;;;8.55;8.15;;;;;;;22.69;49.98;93044.28;5084615;28;20230;-69
2023/08/09 10:06:35;;;;;;;9.07;8.57;;;;;;;22.57;50.78;93031.00;5084862;28;20210;-68
2023/08/09 10:09:03;;;;;;;8.82;8.43;;;;;;;22.74;50.92;93029.94;5092774;28;20260;-69
2023/08/09 10:11:29;;;;;;;8.77;8.38;;;;;;;22.92;49.06;93037.25;5090927;28;20191;-69
2023/08/09 10:14:00;;;;;;;9.68;8.95;;;;;;;22.94;49.83;93034.97;5091197;28;20185;-68
2023/08/09 10:16:28;;;;;;;9.00;8.50;;;;;;;23.20;49.53;93042.47;5091975;28;20224;-68
2023/08/09 10:19:00;;;;;;;7.82;7.53;;;;;;;22.81;47.71;93036.19;5092622;28;20182;-68
2023/08/09 10:21:26;;;;;;;9.10;8.65;;;;;;;23.05;48.99;93029.94;5092153;28;20246;-68
2023/08/09 10:23:55;;;;;;;8.48;8.07;;;;;;;23.11;48.11;93034.66;5092814;28;20188;-68
2023/08/09 10:26:30;;;;;;;8.70;8.27;;;;;;;23.52;48.34;93035.97;5091679;28;20185;-69
2023/08/09 10:29:06;;;;;;;8.75;8.35;;;;;;;23.73;47.63;93034.56;5091116;28;20206;-68
2023/08/09 10:31:53;;;;;;;8.50;8.13;;;;;;;23.45;48.54;93015.28;5090066;28;20188;-69
2023/08/09 10:34:41;;;;;;;7.90;7.57;;;;;;;23.51;48.46;93015.78;5091346;28;20180;-68
2023/08/09 10:37:09;;;;;;;9.27;8.77;;;;;;;23.74;45.04;93017.44;5091766;28;20915;-68
2023/08/09 10:39:35;;;;;;;8.63;8.20;;;;;;;22.79;47.52;92955.09;5092089;28;20184;-68
2023/08/09 10:42:11;;;;;;;8.00;7.60;;;;;;;23.05;45.66;93005.97;5088989;28;20230;-69
2023/08/09 10:44:42;;;;;;;9.20;8.70;;;;;;;23.00;46.64;93004.34;5091788;28;20941;-69
2023/08/09 10:47:13;;;;;;;8.48;8.00;;;;;;;23.11;46.75;93000.03;5092054;28;20234;-68
2023/08/09 10:49:47;;;;;;;8.48;8.07;;;;;;;23.29;47.00;92998.56;5079299;28;20720;-72
2023/08/09 10:52:33;;;;;;;8.40;8.00;;;;;;;23.29;47.35;93005.78;5091273;28;20254;-70
2023/08/09 10:55:19;;;;;;;8.25;7.85;;;;;;;23.17;47.58;92990.66;5091920;28;20211;-71
2023/08/09 10:57:48;;;;;;;9.23;8.63;;;;;;;23.26;48.73;92991.25;5090195;28;20756;-71
2023/08/09 11:00:15;;;;;;;8.82;8.43;;;;;;;23.20;47.61;92987.28;5092290;28;20195;-71
2023/08/09 11:02:48;;;;;;;9.43;8.57;;;;;;;22.82;47.13;92983.72;5090133;28;20219;-71
2023/08/09 11:05:14;;;;;;;8.45;8.05;;;;;;;22.81;48.12;92976.84;5092069;28;20202;-71
2023/08/09 11:07:47;;;;;;;8.15;7.68;;;;;;;23.09;46.75;92983.63;5091357;28;20254;-71
2023/08/09 11:10:13;;;;;;;8.20;7.80;;;;;;;23.02;45.88;92967.44;5091427;28;22419;-71
2023/08/09 11:12:42;;;;;;;8.48;7.82;;;;;;;23.12;46.63;92976.81;5091356;28;20299;-70
2023/08/09 11:15:08;;;;;;;8.82;8.20;;;;;;;23.30;45.48;92975.34;5091497;28;20202;-70
2023/08/09 11:17:34;;;;;;;8.90;8.50;;;;;;;23.09;47.18;92966.84;5091123;28;20249;-72
2023/08/09 11:20:00;;;;;;;8.60;8.20;;;;;;;22.98;45.26;92961.28;5091371;28;20203;-71
2023/08/09 11:22:26;;;;;;;8.88;8.48;;;;;;;23.61;44.97;92976.00;5091047;28;20231;-70
2023/08/09 11:24:54;;;;;;;10.20;9.40;;;;;;;23.88;44.74;92974.28;5088953;28;20175;-71
2023/08/09 11:27:20;;;;;;;8.43;7.97;;;;;;;24.03;43.52;92968.13;5090973;28;20353;-71
2023/08/09 11:29:47;;;;;;;8.13;7.72;;;;;;;23.72;45.03;92958.34;5090153;28;20187;-71
2023/08/09 11:32:12;;;;;;;8.38;7.80;;;;;;;24.17;43.86;92959.63;5091016;28;20258;-70